createdAt,value
2023-02-22T00:02:16.760Z,7.49
2023-02-22T00:04:44.271Z,7.43
2023-02-22T00:07:11.749Z,7.43
2023-02-22T00:09:39.101Z,7.41
2023-02-22T00:12:06.381Z,7.51
2023-02-22T00:14:33.770Z,7.47
2023-02-22T00:17:01.312Z,7.47
2023-02-22T00:19:31.098Z,7.46
2023-02-22T00:21:58.798Z,7.47
2023-02-22T00:24:26.303Z,7.48
2023-02-22T00:26:57.223Z,7.50
2023-02-22T00:29:26.002Z,7.51
2023-02-22T00:31:54.330Z,7.53
2023-02-22T00:34:24.358Z,7.63
2023-02-22T00:36:51.847Z,7.67
2023-02-22T00:39:19.613Z,7.79
2023-02-22T00:41:47.203Z,7.83
2023-02-22T00:44:14.956Z,7.87
2023-02-22T00:46:42.463Z,7.79
2023-02-22T00:49:09.974Z,7.74
2023-02-22T00:51:37.587Z,7.71
2023-02-22T00:54:05.548Z,7.82
2023-02-22T00:56:37.428Z,7.81
2023-02-22T00:59:04.914Z,7.76
2023-02-22T01:01:32.341Z,7.74
2023-02-22T01:03:59.773Z,7.78
2023-02-22T01:06:27.294Z,7.79
2023-02-22T01:08:55.174Z,7.83
2023-02-22T01:11:24.791Z,7.84
2023-02-22T01:13:54.244Z,7.91
2023-02-22T01:16:22.360Z,7.88
2023-02-22T01:18:50.233Z,7.95
2023-02-22T01:21:18.082Z,7.95
2023-02-22T01:23:46.325Z,7.95
2023-02-22T01:26:13.926Z,7.93
2023-02-22T01:28:41.495Z,7.97
2023-02-22T01:31:09.095Z,8.01
2023-02-22T01:33:36.502Z,8.03
2023-02-22T01:36:03.852Z,8.04
2023-02-22T01:38:31.288Z,8.01
2023-02-22T01:40:58.616Z,8.00
2023-02-22T01:43:30.958Z,8.04
2023-02-22T01:46:04.199Z,8.12
2023-02-22T01:48:45.855Z,8.07
2023-02-22T01:51:37.708Z,8.00
2023-02-22T01:54:11.448Z,8.03
2023-02-22T01:56:46.692Z,8.06
2023-02-22T01:59:15.022Z,8.10
2023-02-22T02:01:45.725Z,8.21
2023-02-22T02:04:25.712Z,8.24
2023-02-22T02:06:59.742Z,8.21
2023-02-22T02:09:52.184Z,8.23
2023-02-22T02:12:23.429Z,8.26
2023-02-22T02:14:52.151Z,8.29
2023-02-22T02:17:23.837Z,8.31
2023-02-22T02:20:07.280Z,8.33
2023-02-22T02:22:43.959Z,8.48
2023-02-22T02:25:32.366Z,8.56
2023-02-22T02:28:15.390Z,8.52
2023-02-22T02:31:10.182Z,8.51
2023-02-22T02:33:37.587Z,8.52
2023-02-22T02:36:20.266Z,8.57
2023-02-22T02:38:59.437Z,8.52
2023-02-22T02:41:56.901Z,8.51
2023-02-22T02:44:55.906Z,8.55
2023-02-22T02:47:33.052Z,8.49
2023-02-22T02:50:03.037Z,8.54
2023-02-22T02:52:32.970Z,8.47
2023-02-22T02:55:03.487Z,8.52
2023-02-22T02:57:30.935Z,8.50
2023-02-22T03:00:00.398Z,8.51
2023-02-22T03:03:05.618Z,8.48
2023-02-22T03:05:52.721Z,8.50
2023-02-22T03:08:50.581Z,8.55
2023-02-22T03:11:29.435Z,8.45
2023-02-22T03:14:20.089Z,8.51
2023-02-22T03:17:06.083Z,8.56
2023-02-22T03:19:45.721Z,8.58
2023-02-22T03:22:17.672Z,8.51
2023-02-22T03:25:02.276Z,8.54
2023-02-22T03:27:43.561Z,8.55
2023-02-22T03:30:19.893Z,8.60
2023-02-22T03:32:50.995Z,8.57
2023-02-22T03:35:25.945Z,8.59
2023-02-22T03:37:57.380Z,8.57
2023-02-22T03:40:45.462Z,8.59
2023-02-22T03:43:19.040Z,8.56
2023-02-22T03:45:50.621Z,8.57
2023-02-22T03:48:30.434Z,8.58
2023-02-22T03:51:02.910Z,8.62
2023-02-22T03:53:34.374Z,8.69
2023-02-22T03:56:05.988Z,8.62
2023-02-22T03:58:36.956Z,8.62
2023-02-22T04:01:05.058Z,8.64
2023-02-22T04:03:32.573Z,8.58
2023-02-22T04:06:00.161Z,8.59
2023-02-22T04:08:27.660Z,8.61
2023-02-22T04:10:55.055Z,8.58
2023-02-22T04:13:27.484Z,8.64
2023-02-22T04:15:55.430Z,8.60
2023-02-22T04:18:23.114Z,8.61
2023-02-22T04:20:51.790Z,8.57
2023-02-22T04:23:42.000Z,8.55
2023-02-22T04:26:10.006Z,8.54
2023-02-22T04:28:37.486Z,8.54
2023-02-22T04:31:15.725Z,8.54
2023-02-22T04:33:44.052Z,8.55
2023-02-22T04:36:16.241Z,8.56
2023-02-22T04:38:45.388Z,8.61
2023-02-22T04:41:13.647Z,8.62
2023-02-22T04:43:42.439Z,8.60
2023-02-22T04:46:17.857Z,8.64
2023-02-22T04:48:45.901Z,8.66
2023-02-22T04:51:15.309Z,8.69
2023-02-22T04:53:54.110Z,8.66
2023-02-22T04:56:21.697Z,8.69
2023-02-22T04:58:49.956Z,8.67
2023-02-22T05:01:17.816Z,8.67
2023-02-22T05:03:47.213Z,8.70
2023-02-22T05:06:14.810Z,8.79
2023-02-22T05:08:42.831Z,8.79
2023-02-22T05:11:10.274Z,8.80
2023-02-22T05:13:37.691Z,8.84
2023-02-22T05:16:05.568Z,8.87
2023-02-22T05:18:33.074Z,8.82
2023-02-22T05:21:00.610Z,8.80
2023-02-22T05:23:28.005Z,8.86
2023-02-22T05:25:55.394Z,8.92
2023-02-22T05:28:22.726Z,8.75
2023-02-22T05:30:50.807Z,8.72
2023-02-22T05:33:18.404Z,8.71
2023-02-22T05:35:46.415Z,8.71
2023-02-22T05:38:15.326Z,8.76
2023-02-22T05:40:43.513Z,8.74
2023-02-22T05:43:11.021Z,8.76
2023-02-22T05:45:38.500Z,8.73
2023-02-22T05:48:06.034Z,8.70
2023-02-22T05:50:34.124Z,8.76
2023-02-22T05:53:02.379Z,8.72
2023-02-22T05:55:29.851Z,8.72
2023-02-22T05:57:57.260Z,8.73
2023-02-22T06:00:27.949Z,8.72
2023-02-22T06:03:04.364Z,8.73
2023-02-22T06:05:32.189Z,8.76
2023-02-22T06:08:02.227Z,8.73
2023-02-22T06:10:30.181Z,8.79
2023-02-22T06:12:59.462Z,8.85
2023-02-22T06:15:28.432Z,8.92
2023-02-22T06:17:57.929Z,8.96
2023-02-22T06:20:28.131Z,8.94
2023-02-22T06:22:57.752Z,8.86
2023-02-22T06:25:28.039Z,8.87
2023-02-22T06:27:55.553Z,8.83
2023-02-22T06:30:24.016Z,8.84
2023-02-22T06:32:51.519Z,8.82
2023-02-22T06:35:19.324Z,8.88
2023-02-22T06:37:48.452Z,8.84
2023-02-22T06:40:16.098Z,8.88
2023-02-22T06:42:44.001Z,8.92
2023-02-22T06:45:11.539Z,8.91
2023-02-22T06:47:40.705Z,8.85
2023-02-22T06:50:18.890Z,8.83
2023-02-22T06:52:48.089Z,8.83
2023-02-22T06:55:24.517Z,8.79
2023-02-22T06:57:52.437Z,8.80
2023-02-22T07:00:22.366Z,8.81
2023-02-22T07:02:49.800Z,8.83
2023-02-22T07:05:18.858Z,8.86
2023-02-22T07:07:47.285Z,8.86
2023-02-22T07:10:24.528Z,8.90
2023-02-22T07:12:52.652Z,8.89
2023-02-22T07:15:23.735Z,8.94
2023-02-22T07:17:52.430Z,8.92
2023-02-22T07:20:21.722Z,8.94
2023-02-22T07:22:49.630Z,8.96
2023-02-22T07:25:17.583Z,8.93
2023-02-22T07:27:45.891Z,8.91
2023-02-22T07:30:25.466Z,8.93
2023-02-22T07:32:55.282Z,8.91
2023-02-22T07:35:24.415Z,8.90
2023-02-22T07:37:54.060Z,8.90
2023-02-22T07:40:24.968Z,8.95
2023-02-22T07:42:53.336Z,8.98
2023-02-22T07:45:22.140Z,9.07
2023-02-22T07:47:49.612Z,9.06
2023-02-22T07:50:18.447Z,9.06
2023-02-22T07:52:51.384Z,9.06
2023-02-22T07:55:21.548Z,9.09
2023-02-22T07:57:51.561Z,9.15
2023-02-22T08:00:32.142Z,9.25
2023-02-22T08:03:01.244Z,9.38
2023-02-22T08:05:30.738Z,9.41
2023-02-22T08:07:58.627Z,9.48
2023-02-22T08:10:27.234Z,9.52
2023-02-22T08:12:56.073Z,9.56
2023-02-22T08:15:26.538Z,9.57
2023-02-22T08:17:55.526Z,9.62
2023-02-22T08:20:23.082Z,9.72
2023-02-22T08:22:51.500Z,9.70
2023-02-22T08:25:21.133Z,9.73
2023-02-22T08:27:49.130Z,9.74
2023-02-22T08:30:23.800Z,9.69
2023-02-22T08:32:51.814Z,9.74
2023-02-22T08:35:22.585Z,9.74
2023-02-22T08:37:55.002Z,9.80
2023-02-22T08:40:24.965Z,9.91
2023-02-22T08:42:52.633Z,10.00
2023-02-22T08:45:20.878Z,10.07
2023-02-22T08:47:48.524Z,10.22
2023-02-22T08:50:21.858Z,10.30
2023-02-22T08:52:59.448Z,10.40
2023-02-22T08:55:34.426Z,10.53
2023-02-22T08:58:03.476Z,10.63
2023-02-22T09:00:33.428Z,10.67
2023-02-22T09:03:02.965Z,10.70
2023-02-22T09:05:31.665Z,10.75
2023-02-22T09:08:00.402Z,10.71
2023-02-22T09:10:33.920Z,10.71
2023-02-22T09:13:02.576Z,10.71
2023-02-22T09:15:30.527Z,10.70
2023-02-22T09:17:58.926Z,10.68
2023-02-22T09:20:27.769Z,10.69
2023-02-22T09:22:55.642Z,10.63
2023-02-22T09:25:23.740Z,10.56
2023-02-22T09:27:52.639Z,10.56
2023-02-22T09:30:25.125Z,10.54
2023-02-22T09:32:56.270Z,10.54
2023-02-22T09:35:37.068Z,10.47
2023-02-22T09:38:06.582Z,10.51
2023-02-22T09:40:45.262Z,10.46
2023-02-22T09:43:40.752Z,10.48
2023-02-22T09:46:12.305Z,10.42
2023-02-22T09:49:19.594Z,10.47
2023-02-22T09:52:04.778Z,10.47
2023-02-22T09:54:38.999Z,10.38
2023-02-22T09:57:12.949Z,10.40
2023-02-22T09:59:46.938Z,10.43
2023-02-22T10:02:37.088Z,10.46
2023-02-22T10:05:20.240Z,10.46
2023-02-22T10:07:54.459Z,10.43
2023-02-22T10:10:25.007Z,10.46
2023-02-22T10:13:23.958Z,10.42
2023-02-22T10:16:05.288Z,10.52
2023-02-22T10:19:11.148Z,10.58
2023-02-22T10:22:06.947Z,10.71
2023-02-22T10:24:38.512Z,10.71
2023-02-22T10:27:34.337Z,10.70
2023-02-22T10:30:33.948Z,10.75
2023-02-22T10:33:20.447Z,10.77
2023-02-22T10:35:48.853Z,10.82
2023-02-22T10:38:20.817Z,10.85
2023-02-22T10:40:54.787Z,10.85
2023-02-22T10:43:23.589Z,10.86
2023-02-22T10:45:56.131Z,10.87
2023-02-22T10:48:26.515Z,10.76
2023-02-22T10:50:59.817Z,10.74
2023-02-22T10:53:28.654Z,10.69
2023-02-22T10:56:09.818Z,10.64
2023-02-22T10:59:02.493Z,10.63
2023-02-22T11:01:32.925Z,10.59
2023-02-22T11:04:07.142Z,10.50
2023-02-22T11:06:35.233Z,10.49
2023-02-22T11:09:13.419Z,10.42
2023-02-22T11:11:44.125Z,10.40
2023-02-22T11:14:13.691Z,10.36
2023-02-22T11:16:51.351Z,10.32
2023-02-22T11:19:26.039Z,10.19
2023-02-22T11:22:09.835Z,10.18
2023-02-22T11:24:58.183Z,10.16
2023-02-22T11:27:33.358Z,10.25
2023-02-22T11:30:18.252Z,10.21
2023-02-22T11:32:49.571Z,10.27
2023-02-22T11:35:38.849Z,10.29
2023-02-22T11:38:12.226Z,10.35
2023-02-22T11:40:40.237Z,10.38
2023-02-22T11:43:18.977Z,10.49
2023-02-22T11:46:06.428Z,10.56
2023-02-22T11:48:39.529Z,10.57
2023-02-22T11:51:14.502Z,10.51
2023-02-22T11:54:11.291Z,10.54
2023-02-22T11:56:48.329Z,10.48
2023-02-22T11:59:47.013Z,10.48
2023-02-22T12:02:37.471Z,10.50
2023-02-22T12:05:31.202Z,10.62
2023-02-22T12:08:28.200Z,10.66
2023-02-22T12:11:35.678Z,10.97
2023-02-22T12:14:24.357Z,11.15
2023-02-22T12:17:06.660Z,11.23
2023-02-22T12:19:49.403Z,11.24
2023-02-22T12:22:23.195Z,11.22
2023-02-22T12:25:09.843Z,11.25
2023-02-22T12:27:43.705Z,11.32
2023-02-22T12:30:19.354Z,11.33
2023-02-22T12:32:52.795Z,11.46
2023-02-22T12:35:28.070Z,11.56
2023-02-22T12:38:08.298Z,11.55
2023-02-22T12:40:47.327Z,11.62
2023-02-22T12:43:37.052Z,11.59
2023-02-22T12:46:31.930Z,11.44
2023-02-22T12:49:23.416Z,11.40
2023-02-22T12:52:21.384Z,11.40
2023-02-22T12:54:59.498Z,11.28
2023-02-22T12:57:35.914Z,11.25
2023-02-22T13:00:23.248Z,11.27
2023-02-22T13:03:02.477Z,11.38
2023-02-22T13:05:37.005Z,11.48
2023-02-22T13:08:58.504Z,11.55
2023-02-22T13:11:34.166Z,11.58
2023-02-22T13:14:39.116Z,11.62
2023-02-22T13:17:43.137Z,11.62
2023-02-22T13:20:18.506Z,11.58
2023-02-22T13:23:03.552Z,11.56
2023-02-22T13:25:41.431Z,11.60
2023-02-22T13:28:26.496Z,11.49
2023-02-22T13:31:05.892Z,11.50
2023-02-22T13:33:45.273Z,11.58
2023-02-22T13:36:15.905Z,11.45
2023-02-22T13:39:39.203Z,11.36
2023-02-22T13:42:44.576Z,11.15
2023-02-22T13:45:29.394Z,11.11
2023-02-22T13:48:24.815Z,11.21
2023-02-22T13:51:06.764Z,11.27
2023-02-22T13:53:56.037Z,11.38
2023-02-22T13:56:25.962Z,11.37
2023-02-22T13:58:58.300Z,11.38
2023-02-22T14:01:47.964Z,11.40
2023-02-22T14:04:23.711Z,11.30
2023-02-22T14:06:51.473Z,11.32
2023-02-22T14:09:57.743Z,11.25
2023-02-22T14:12:31.619Z,11.30
2023-02-22T14:15:28.109Z,11.16
2023-02-22T14:18:02.050Z,11.00
2023-02-22T14:20:36.176Z,10.76
2023-02-22T14:23:34.183Z,10.59
2023-02-22T14:26:20.188Z,10.35
2023-02-22T14:29:00.794Z,10.33
2023-02-22T14:31:37.426Z,10.45
2023-02-22T14:34:16.054Z,10.48
2023-02-22T14:37:07.699Z,10.58
2023-02-22T14:39:45.183Z,10.65
2023-02-22T14:42:33.271Z,10.71
2023-02-22T14:45:17.491Z,10.90
2023-02-22T14:47:50.193Z,11.06
2023-02-22T14:50:45.302Z,11.19
2023-02-22T14:53:12.759Z,11.20
2023-02-22T14:55:42.191Z,11.26
2023-02-22T14:58:18.952Z,11.04
2023-02-22T15:00:50.007Z,10.87
2023-02-22T15:03:37.403Z,10.82
2023-02-22T15:06:18.636Z,10.78
2023-02-22T15:08:49.876Z,10.76
2023-02-22T15:11:23.998Z,10.64
2023-02-22T15:13:54.176Z,10.65
2023-02-22T15:16:23.491Z,10.56
2023-02-22T15:18:55.700Z,10.51
2023-02-22T15:21:28.499Z,10.52
2023-02-22T15:24:00.090Z,10.49
2023-02-22T15:26:37.393Z,10.54
2023-02-22T15:29:25.667Z,10.58
2023-02-22T15:31:53.994Z,10.49
2023-02-22T15:34:28.206Z,10.47
2023-02-22T15:36:58.418Z,10.42
2023-02-22T15:39:34.655Z,10.53
2023-02-22T15:42:05.660Z,10.45
2023-02-22T15:44:53.983Z,10.43
2023-02-22T15:47:27.566Z,10.35
2023-02-22T15:50:23.998Z,10.24
2023-02-22T15:53:27.250Z,10.17
2023-02-22T15:56:01.000Z,10.16
2023-02-22T15:58:30.117Z,10.27
2023-02-22T16:01:03.956Z,10.22
2023-02-22T16:03:53.695Z,10.22
2023-02-22T16:06:40.516Z,10.25
2023-02-22T16:09:17.368Z,10.29
2023-02-22T16:11:47.129Z,10.34
2023-02-22T16:14:40.111Z,10.35
2023-02-22T16:17:35.429Z,10.36
2023-02-22T16:20:19.212Z,10.39
2023-02-22T16:22:51.662Z,10.42
2023-02-22T16:25:19.277Z,10.44
2023-02-22T16:27:47.931Z,10.54
2023-02-22T16:30:24.554Z,10.37
2023-02-22T16:32:55.681Z,10.30
2023-02-22T16:35:29.085Z,10.30
2023-02-22T16:38:02.382Z,10.28
2023-02-22T16:40:35.998Z,10.19
2023-02-22T16:43:08.018Z,10.16
2023-02-22T16:45:36.200Z,10.20
2023-02-22T16:48:19.341Z,10.16
2023-02-22T16:50:50.862Z,10.22
2023-02-22T16:53:21.527Z,10.18
2023-02-22T16:55:50.908Z,10.17
2023-02-22T16:58:19.413Z,10.08
2023-02-22T17:00:46.860Z,10.09
2023-02-22T17:03:16.859Z,9.98
2023-02-22T17:05:44.581Z,10.10
2023-02-22T17:08:12.174Z,10.04
2023-02-22T17:10:39.743Z,9.81
2023-02-22T17:13:21.858Z,9.68
2023-02-22T17:15:50.593Z,9.63
2023-02-22T17:18:23.007Z,9.59
2023-02-22T17:20:52.541Z,9.53
2023-02-22T17:23:20.772Z,9.39
2023-02-22T17:25:55.536Z,9.64
2023-02-22T17:28:24.801Z,9.48
2023-02-22T17:30:54.644Z,9.39
2023-02-22T17:33:27.405Z,9.40
2023-02-22T17:35:57.886Z,9.26
2023-02-22T17:38:29.119Z,9.20
2023-02-22T17:40:58.043Z,9.35
2023-02-22T17:43:27.962Z,9.19
2023-02-22T17:45:56.494Z,9.17
2023-02-22T17:48:24.680Z,9.11
2023-02-22T17:50:52.878Z,9.14
2023-02-22T17:53:25.076Z,9.16
2023-02-22T17:55:53.143Z,9.16
2023-02-22T17:58:22.316Z,9.08
2023-02-22T18:00:51.010Z,9.06
2023-02-22T18:03:25.919Z,9.12
2023-02-22T18:05:57.731Z,9.07
2023-02-22T18:08:27.607Z,9.16
2023-02-22T18:10:58.318Z,9.11
2023-02-22T18:13:27.863Z,9.24
2023-02-22T18:16:05.884Z,9.13
2023-02-22T18:18:34.044Z,9.10
2023-02-22T18:21:02.020Z,8.98
2023-02-22T18:23:31.611Z,8.95
2023-02-22T18:26:10.751Z,8.93
2023-02-22T18:28:39.779Z,8.89
2023-02-22T18:31:15.935Z,8.92
2023-02-22T18:33:45.416Z,8.83
2023-02-22T18:36:14.446Z,8.80
2023-02-22T18:38:43.769Z,8.79
2023-02-22T18:41:14.439Z,8.76
2023-02-22T18:43:42.955Z,8.77
2023-02-22T18:46:16.420Z,8.76
2023-02-22T18:48:45.026Z,8.79
2023-02-22T18:51:14.444Z,8.70
2023-02-22T18:53:47.722Z,8.69
2023-02-22T18:56:22.567Z,8.66
2023-02-22T18:58:54.732Z,8.70
2023-02-22T19:01:22.856Z,8.74
2023-02-22T19:03:51.943Z,8.74
2023-02-22T19:06:22.720Z,8.72
2023-02-22T19:08:51.094Z,8.73
2023-02-22T19:11:22.013Z,8.67
2023-02-22T19:13:52.429Z,8.70
2023-02-22T19:16:22.416Z,8.63
2023-02-22T19:18:52.678Z,8.64
2023-02-22T19:21:20.901Z,8.64
2023-02-22T19:23:49.499Z,8.57
2023-02-22T19:26:20.028Z,8.56
2023-02-22T19:28:48.221Z,8.53
2023-02-22T19:31:19.689Z,8.50
2023-02-22T19:33:51.424Z,8.49
2023-02-22T19:36:20.489Z,8.53
2023-02-22T19:38:48.036Z,8.64
2023-02-22T19:41:18.526Z,8.51
2023-02-22T19:43:51.745Z,8.41
2023-02-22T19:46:21.359Z,8.38
2023-02-22T19:48:49.930Z,8.35
2023-02-22T19:51:19.820Z,8.29
2023-02-22T19:53:47.620Z,8.26
2023-02-22T19:56:20.755Z,8.19
2023-02-22T19:58:50.238Z,8.15
2023-02-22T20:01:23.411Z,8.21
2023-02-22T20:03:56.478Z,8.20
2023-02-22T20:06:28.279Z,8.09
2023-02-22T20:08:56.660Z,8.06
2023-02-22T20:11:24.999Z,7.97
2023-02-22T20:13:52.557Z,7.99
2023-02-22T20:16:20.007Z,7.94
2023-02-22T20:18:48.596Z,7.87
2023-02-22T20:21:22.521Z,7.77
2023-02-22T20:23:50.827Z,7.76
2023-02-22T20:26:22.459Z,7.69
2023-02-22T20:28:50.873Z,7.66
2023-02-22T20:31:19.765Z,7.59
2023-02-22T20:33:49.458Z,7.62
2023-02-22T20:36:18.687Z,7.59
2023-02-22T20:38:46.116Z,7.45
2023-02-22T20:41:20.217Z,7.35
2023-02-22T20:43:52.832Z,7.29
2023-02-22T20:46:20.396Z,7.20
2023-02-22T20:48:47.911Z,7.14
2023-02-22T20:51:16.184Z,7.09
2023-02-22T20:53:45.079Z,7.17
2023-02-22T20:56:14.391Z,7.21
2023-02-22T20:58:42.513Z,7.22
2023-02-22T21:01:12.256Z,7.14
2023-02-22T21:03:43.741Z,7.04
2023-02-22T21:06:15.479Z,6.91
2023-02-22T21:08:44.391Z,7.00
2023-02-22T21:11:14.287Z,6.98
2023-02-22T21:13:42.490Z,6.90
2023-02-22T21:16:17.501Z,6.85
2023-02-22T21:18:45.550Z,6.86
2023-02-22T21:21:13.501Z,6.86
2023-02-22T21:23:41.507Z,6.84
2023-02-22T21:26:16.712Z,6.79
2023-02-22T21:28:52.123Z,6.81
2023-02-22T21:31:23.649Z,6.80
2023-02-22T21:33:54.839Z,6.81
2023-02-22T21:36:26.447Z,6.78
2023-02-22T21:38:59.524Z,6.63
2023-02-22T21:41:31.180Z,6.69
2023-02-22T21:43:59.947Z,6.57
2023-02-22T21:46:29.352Z,6.58
2023-02-22T21:48:58.810Z,6.51
2023-02-22T21:51:32.262Z,6.56
2023-02-22T21:54:03.380Z,6.49
2023-02-22T21:56:34.384Z,6.44
2023-02-22T21:59:18.872Z,6.36
2023-02-22T22:01:50.186Z,6.34
2023-02-22T22:04:21.407Z,6.24
2023-02-22T22:06:53.619Z,6.20
2023-02-22T22:09:23.780Z,6.23
2023-02-22T22:11:54.134Z,6.20
2023-02-22T22:14:24.142Z,6.20
2023-02-22T22:16:54.539Z,6.20
2023-02-22T22:19:23.068Z,6.07
2023-02-22T22:21:53.525Z,5.92
2023-02-22T22:24:22.850Z,5.94
2023-02-22T22:26:54.904Z,5.90
2023-02-22T22:29:24.692Z,5.91
2023-02-22T22:31:53.167Z,5.98
2023-02-22T22:34:21.033Z,5.89
2023-02-22T22:36:48.626Z,5.81
2023-02-22T22:39:16.208Z,5.79
2023-02-22T22:41:44.563Z,5.77
2023-02-22T22:44:15.511Z,5.76
2023-02-22T22:46:43.848Z,5.65
2023-02-22T22:49:13.738Z,5.64
2023-02-22T22:51:42.674Z,5.64
2023-02-22T22:54:11.088Z,5.59
2023-02-22T22:56:38.961Z,5.49
2023-02-22T22:59:09.744Z,5.48
2023-02-22T23:01:40.724Z,5.44
2023-02-22T23:04:11.834Z,5.54
2023-02-22T23:06:42.380Z,5.51
2023-02-22T23:09:34.788Z,5.47
2023-02-22T23:12:16.662Z,5.46
2023-02-22T23:14:45.445Z,5.43
2023-02-22T23:17:16.285Z,5.41
2023-02-22T23:19:45.355Z,5.40
2023-02-22T23:22:14.522Z,5.31
2023-02-22T23:24:44.624Z,5.22
2023-02-22T23:27:12.840Z,5.16
2023-02-22T23:29:42.267Z,5.15
2023-02-22T23:32:10.418Z,5.14
2023-02-22T23:34:41.844Z,5.13
2023-02-22T23:37:10.875Z,5.20
2023-02-22T23:39:38.830Z,5.10
2023-02-22T23:42:09.010Z,5.14
2023-02-22T23:44:36.764Z,5.02
2023-02-22T23:47:04.518Z,5.06
2023-02-22T23:49:36.041Z,5.07
2023-02-22T23:52:05.276Z,5.08
2023-02-22T23:54:36.615Z,5.08
2023-02-22T23:57:05.494Z,5.06
2023-02-22T23:59:34.001Z,4.98
